sensor_id;sensor_type;location;lat;lon;timestamp;pressure;altitude;pressure_sealevel;temperature;humidity
49461;BME280;35355;49.198;-0.368;2023-08-06T00:00:27;100833.09;;;17.49;64.76
49461;BME280;35355;49.198;-0.368;2023-08-06T00:02:52;100827.03;;;17.47;64.76
49461;BME280;35355;49.198;-0.368;2023-08-06T00:05:18;100823.16;;;17.48;64.79
49461;BME280;35355;49.198;-0.368;2023-08-06T00:07:47;100814.34;;;17.46;64.66
49461;BME280;35355;49.198;-0.368;2023-08-06T00:10:12;100822.94;;;17.45;65.00
49461;BME280;35355;49.198;-0.368;2023-08-06T00:12:38;100821.63;;;17.42;65.06
49461;BME280;35355;49.198;-0.368;2023-08-06T00:15:10;100820.78;;;17.42;65.03
49461;BME280;35355;49.198;-0.368;2023-08-06T00:17:37;100826.00;;;17.43;65.36
49461;BME280;35355;49.198;-0.368;2023-08-06T00:20:03;100823.56;;;17.42;65.39
49461;BME280;35355;49.198;-0.368;2023-08-06T00:22:36;100824.16;;;17.39;65.33
49461;BME280;35355;49.198;-0.368;2023-08-06T00:25:05;100833.28;;;17.39;65.39
49461;BME280;35355;49.198;-0.368;2023-08-06T00:27:31;100824.16;;;17.39;65.43
49461;BME280;35355;49.198;-0.368;2023-08-06T00:29:57;100845.44;;;17.38;65.43
49461;BME280;35355;49.198;-0.368;2023-08-06T00:32:23;100842.13;;;17.36;65.26
49461;BME280;35355;49.198;-0.368;2023-08-06T00:34:48;100848.50;;;17.36;65.38
49461;BME280;35355;49.198;-0.368;2023-08-06T00:37:17;100847.66;;;17.36;65.36
49461;BME280;35355;49.198;-0.368;2023-08-06T00:39:43;100857.09;;;17.35;65.55
49461;BME280;35355;49.198;-0.368;2023-08-06T00:42:09;100854.63;;;17.33;65.65
49461;BME280;35355;49.198;-0.368;2023-08-06T00:44:42;100849.09;;;17.33;65.43
49461;BME280;35355;49.198;-0.368;2023-08-06T00:47:11;100852.69;;;17.34;65.50
49461;BME280;35355;49.198;-0.368;2023-08-06T00:49:36;100848.88;;;17.30;65.34
49461;BME280;35355;49.198;-0.368;2023-08-06T00:52:03;100846.84;;;17.35;65.83
49461;BME280;35355;49.198;-0.368;2023-08-06T00:54:29;100846.66;;;17.32;65.31
49461;BME280;35355;49.198;-0.368;2023-08-06T00:56:59;100862.91;;;17.33;65.51
49461;BME280;35355;49.198;-0.368;2023-08-06T00:59:25;100866.47;;;17.34;65.71
49461;BME280;35355;49.198;-0.368;2023-08-06T01:01:51;100873.94;;;17.33;65.39
49461;BME280;35355;49.198;-0.368;2023-08-06T01:04:16;100870.16;;;17.29;65.74
49461;BME280;35355;49.198;-0.368;2023-08-06T01:06:46;100876.78;;;17.28;65.51
49461;BME280;35355;49.198;-0.368;2023-08-06T01:09:50;100875.25;;;17.22;65.17
49461;BME280;35355;49.198;-0.368;2023-08-06T01:15:18;100881.56;;;17.23;65.30
49461;BME280;35355;49.198;-0.368;2023-08-06T01:17:45;100876.28;;;17.26;65.52
49461;BME280;35355;49.198;-0.368;2023-08-06T01:20:11;100881.56;;;17.23;65.62
49461;BME280;35355;49.198;-0.368;2023-08-06T01:22:36;100893.94;;;17.25;65.70
49461;BME280;35355;49.198;-0.368;2023-08-06T01:25:02;100910.78;;;17.24;65.39
49461;BME280;35355;49.198;-0.368;2023-08-06T01:27:48;100902.31;;;17.20;65.47
49461;BME280;35355;49.198;-0.368;2023-08-06T01:30:20;100907.84;;;17.20;65.53
49461;BME280;35355;49.198;-0.368;2023-08-06T01:32:50;100912.22;;;17.21;65.79
49461;BME280;35355;49.198;-0.368;2023-08-06T01:35:19;100913.06;;;17.22;65.54
49461;BME280;35355;49.198;-0.368;2023-08-06T01:37:47;100915.28;;;17.19;66.01
49461;BME280;35355;49.198;-0.368;2023-08-06T01:40:13;100910.59;;;17.20;65.77
49461;BME280;35355;49.198;-0.368;2023-08-06T01:42:39;100918.88;;;17.20;66.08
49461;BME280;35355;49.198;-0.368;2023-08-06T01:45:08;100915.28;;;17.19;65.94
49461;BME280;35355;49.198;-0.368;2023-08-06T01:47:35;100919.97;;;17.19;66.12
49461;BME280;35355;49.198;-0.368;2023-08-06T01:50:00;100917.81;;;17.16;65.92
49461;BME280;35355;49.198;-0.368;2023-08-06T01:52:26;100914.22;;;17.15;65.92
49461;BME280;35355;49.198;-0.368;2023-08-06T01:54:52;100919.47;;;17.17;66.15
49461;BME280;35355;49.198;-0.368;2023-08-06T01:57:17;100925.81;;;17.17;65.92
49461;BME280;35355;49.198;-0.368;2023-08-06T01:59:43;100926.59;;;17.18;65.85
49461;BME280;35355;49.198;-0.368;2023-08-06T02:02:09;100929.66;;;17.16;66.04
49461;BME280;35355;49.198;-0.368;2023-08-06T02:04:34;100932.44;;;17.16;65.58
49461;BME280;35355;49.198;-0.368;2023-08-06T02:07:00;100937.13;;;17.16;65.89
49461;BME280;35355;49.198;-0.368;2023-08-06T02:09:25;100941.00;;;17.15;66.05
49461;BME280;35355;49.198;-0.368;2023-08-06T02:11:51;100944.88;;;17.14;65.89
49461;BME280;35355;49.198;-0.368;2023-08-06T02:14:19;100943.56;;;17.11;65.58
49461;BME280;35355;49.198;-0.368;2023-08-06T02:16:44;100949.38;;;17.10;65.87
49461;BME280;35355;49.198;-0.368;2023-08-06T02:19:13;100948.84;;;17.08;65.75
49461;BME280;35355;49.198;-0.368;2023-08-06T02:21:38;100942.81;;;17.06;65.81
49461;BME280;35355;49.198;-0.368;2023-08-06T02:24:03;100951.41;;;17.04;65.81
49461;BME280;35355;49.198;-0.368;2023-08-06T02:26:29;100952.00;;;17.01;65.85
49461;BME280;35355;49.198;-0.368;2023-08-06T02:28:54;100956.69;;;17.00;65.81
49461;BME280;35355;49.198;-0.368;2023-08-06T02:31:20;100949.53;;;16.99;65.67
49461;BME280;35355;49.198;-0.368;2023-08-06T02:33:45;100948.41;;;17.00;65.70
49461;BME280;35355;49.198;-0.368;2023-08-06T02:36:10;100953.09;;;17.00;65.59
49461;BME280;35355;49.198;-0.368;2023-08-06T02:38:39;100946.25;;;16.97;65.73
49461;BME280;35355;49.198;-0.368;2023-08-06T02:41:04;100956.69;;;17.00;65.79
49461;BME280;35355;49.198;-0.368;2023-08-06T02:43:30;100952.91;;;16.96;65.49
49461;BME280;35355;49.198;-0.368;2023-08-06T02:45:59;100948.50;;;16.95;65.31
49461;BME280;35355;49.198;-0.368;2023-08-06T02:48:25;100954.81;;;16.96;65.24
49461;BME280;35355;49.198;-0.368;2023-08-06T02:50:51;100946.84;;;16.94;64.79
49461;BME280;35355;49.198;-0.368;2023-08-06T02:53:16;100948.25;;;16.92;64.95
49461;BME280;35355;49.198;-0.368;2023-08-06T02:55:48;100949.69;;;16.89;64.64
49461;BME280;35355;49.198;-0.368;2023-08-06T02:58:14;100944.69;;;16.91;64.55
49461;BME280;35355;49.198;-0.368;2023-08-06T03:00:40;100950.75;;;16.93;64.33
49461;BME280;35355;49.198;-0.368;2023-08-06T03:03:08;100950.16;;;16.96;64.14
49461;BME280;35355;49.198;-0.368;2023-08-06T03:05:34;100958.94;;;16.98;63.86
49461;BME280;35355;49.198;-0.368;2023-08-06T03:08:02;100954.00;;;16.95;63.79
49461;BME280;35355;49.198;-0.368;2023-08-06T03:10:28;100954.31;;;16.94;63.56
49461;BME280;35355;49.198;-0.368;2023-08-06T03:12:53;100968.00;;;16.99;63.42
49461;BME280;35355;49.198;-0.368;2023-08-06T03:15:18;100973.22;;;17.00;63.33
49461;BME280;35355;49.198;-0.368;2023-08-06T03:17:44;100983.44;;;17.00;63.42
49461;BME280;35355;49.198;-0.368;2023-08-06T03:20:10;100985.91;;;17.01;63.03
49461;BME280;35355;49.198;-0.368;2023-08-06T03:22:35;100983.13;;;17.01;63.09
49461;BME280;35355;49.198;-0.368;2023-08-06T03:25:01;100979.56;;;17.01;62.92
49461;BME280;35355;49.198;-0.368;2023-08-06T03:27:26;100987.25;;;17.04;63.19
49461;BME280;35355;49.198;-0.368;2023-08-06T03:29:52;100983.94;;;17.02;63.02
49461;BME280;35355;49.198;-0.368;2023-08-06T03:32:17;100990.81;;;17.05;62.86
49461;BME280;35355;49.198;-0.368;2023-08-06T03:34:43;100993.28;;;17.06;62.79
49461;BME280;35355;49.198;-0.368;2023-08-06T03:37:08;100985.28;;;17.05;62.68
49461;BME280;35355;49.198;-0.368;2023-08-06T03:39:37;100983.38;;;17.05;62.42
49461;BME280;35355;49.198;-0.368;2023-08-06T03:42:03;100985.91;;;17.01;62.32
49461;BME280;35355;49.198;-0.368;2023-08-06T03:44:31;100981.19;;;17.02;62.35
49461;BME280;35355;49.198;-0.368;2023-08-06T03:47:02;100985.91;;;17.01;61.90
49461;BME280;35355;49.198;-0.368;2023-08-06T03:49:27;100991.13;;;17.03;61.94
49461;BME280;35355;49.198;-0.368;2023-08-06T03:51:52;101016.75;;;17.04;62.00
49461;BME280;35355;49.198;-0.368;2023-08-06T03:54:18;101013.47;;;17.01;61.97
49461;BME280;35355;49.198;-0.368;2023-08-06T03:56:43;101015.13;;;17.03;61.78
49461;BME280;35355;49.198;-0.368;2023-08-06T03:59:09;101018.69;;;17.03;61.67
49461;BME280;35355;49.198;-0.368;2023-08-06T04:01:34;101022.25;;;17.04;61.63
49461;BME280;35355;49.198;-0.368;2023-08-06T04:03:59;101026.16;;;17.03;62.15
49461;BME280;35355;49.198;-0.368;2023-08-06T04:06:25;101009.81;;;17.06;61.60
49461;BME280;35355;49.198;-0.368;2023-08-06T04:08:50;101031.06;;;17.06;61.82
49461;BME280;35355;49.198;-0.368;2023-08-06T04:11:16;101026.66;;;17.05;61.97
49461;BME280;35355;49.198;-0.368;2023-08-06T04:13:44;101024.50;;;17.01;61.90
49461;BME280;35355;49.198;-0.368;2023-08-06T04:16:10;101036.59;;;17.06;61.59
49461;BME280;35355;49.198;-0.368;2023-08-06T04:18:35;101042.09;;;17.06;61.57
49461;BME280;35355;49.198;-0.368;2023-08-06T04:21:04;101045.38;;;17.08;61.55
49461;BME280;35355;49.198;-0.368;2023-08-06T04:23:30;101039.03;;;17.07;61.71
49461;BME280;35355;49.198;-0.368;2023-08-06T04:26:01;101041.50;;;17.09;61.78
49461;BME280;35355;49.198;-0.368;2023-08-06T04:28:30;101044.56;;;17.07;61.71
49461;BME280;35355;49.198;-0.368;2023-08-06T04:30:55;101048.13;;;17.08;61.55
49461;BME280;35355;49.198;-0.368;2023-08-06T04:33:23;101050.59;;;17.09;61.57
49461;BME280;35355;49.198;-0.368;2023-08-06T04:35:54;101047.63;;;17.06;61.72
49461;BME280;35355;49.198;-0.368;2023-08-06T04:38:20;101057.84;;;17.05;61.77
49461;BME280;35355;49.198;-0.368;2023-08-06T04:40:48;101061.41;;;17.06;62.17
49461;BME280;35355;49.198;-0.368;2023-08-06T04:43:14;101071.53;;;17.10;61.92
49461;BME280;35355;49.198;-0.368;2023-08-06T04:45:48;101072.66;;;17.09;61.89
49461;BME280;35355;49.198;-0.368;2023-08-06T04:48:14;101066.63;;;17.07;62.25
49461;BME280;35355;49.198;-0.368;2023-08-06T04:50:44;101076.84;;;17.07;62.13
49461;BME280;35355;49.198;-0.368;2023-08-06T04:53:10;101083.97;;;17.08;62.03
49461;BME280;35355;49.198;-0.368;2023-08-06T04:55:35;101096.97;;;17.07;62.30
49461;BME280;35355;49.198;-0.368;2023-08-06T04:58:00;101095.84;;;17.08;62.36
49461;BME280;35355;49.198;-0.368;2023-08-06T05:00:26;101107.19;;;17.07;62.51
49461;BME280;35355;49.198;-0.368;2023-08-06T05:02:51;101106.59;;;17.10;62.37
49461;BME280;35355;49.198;-0.368;2023-08-06T05:05:17;101110.97;;;17.11;62.34
49461;BME280;35355;49.198;-0.368;2023-08-06T05:07:42;101099.94;;;17.11;62.38
49461;BME280;35355;49.198;-0.368;2023-08-06T05:10:08;101096.66;;;17.09;62.13
49461;BME280;35355;49.198;-0.368;2023-08-06T05:12:34;101113.97;;;17.14;62.45
49461;BME280;35355;49.198;-0.368;2023-08-06T05:14:59;101110.38;;;17.14;62.14
49461;BME280;35355;49.198;-0.368;2023-08-06T05:17:25;101124.09;;;17.19;62.29
49461;BME280;35355;49.198;-0.368;2023-08-06T05:19:50;101116.34;;;17.21;62.14
49461;BME280;35355;49.198;-0.368;2023-08-06T05:22:16;101119.69;;;17.18;61.86
49461;BME280;35355;49.198;-0.368;2023-08-06T05:24:41;101130.13;;;17.21;61.96
49461;BME280;35355;49.198;-0.368;2023-08-06T05:27:09;101133.44;;;17.23;62.01
49461;BME280;35355;49.198;-0.368;2023-08-06T05:29:35;101140.06;;;17.22;62.12
49461;BME280;35355;49.198;-0.368;2023-08-06T05:32:00;101149.09;;;17.28;62.01
49461;BME280;35355;49.198;-0.368;2023-08-06T05:34:26;101148.78;;;17.29;62.03
49461;BME280;35355;49.198;-0.368;2023-08-06T05:36:51;101142.75;;;17.27;62.16
49461;BME280;35355;49.198;-0.368;2023-08-06T05:39:18;101156.78;;;17.31;61.82
49461;BME280;35355;49.198;-0.368;2023-08-06T05:41:43;101148.28;;;17.27;61.69
49461;BME280;35355;49.198;-0.368;2023-08-06T05:44:08;101162.19;;;17.36;61.69
49461;BME280;35355;49.198;-0.368;2023-08-06T05:46:34;101160.94;;;17.28;61.82
49461;BME280;35355;49.198;-0.368;2023-08-06T05:49:02;101172.28;;;17.27;61.36
49461;BME280;35355;49.198;-0.368;2023-08-06T05:51:28;101181.38;;;17.27;61.19
49461;BME280;35355;49.198;-0.368;2023-08-06T05:54:02;101186.31;;;17.30;61.74
49461;BME280;35355;49.198;-0.368;2023-08-06T05:56:27;101195.09;;;17.32;60.93
49461;BME280;35355;49.198;-0.368;2023-08-06T05:58:53;101198.38;;;17.34;61.15
49461;BME280;35355;49.198;-0.368;2023-08-06T06:01:19;101201.69;;;17.36;61.00
49461;BME280;35355;49.198;-0.368;2023-08-06T06:03:44;101191.75;;;17.35;60.95
49461;BME280;35355;49.198;-0.368;2023-08-06T06:06:10;101186.97;;;17.41;60.35
49461;BME280;35355;49.198;-0.368;2023-08-06T06:08:38;101192.38;;;17.51;60.54
49461;BME280;35355;49.198;-0.368;2023-08-06T06:11:04;101197.50;;;17.58;59.97
49461;BME280;35355;49.198;-0.368;2023-08-06T06:13:29;101190.34;;;17.57;60.00
49461;BME280;35355;49.198;-0.368;2023-08-06T06:15:55;101200.25;;;17.77;60.15
49461;BME280;35355;49.198;-0.368;2023-08-06T06:18:22;101194.00;;;17.91;59.56
49461;BME280;35355;49.198;-0.368;2023-08-06T06:20:47;101203.41;;;18.09;59.46
49461;BME280;35355;49.198;-0.368;2023-08-06T06:23:13;101186.66;;;18.19;58.99
49461;BME280;35355;49.198;-0.368;2023-08-06T06:25:48;101202.47;;;18.32;59.27
49461;BME280;35355;49.198;-0.368;2023-08-06T06:28:18;101211.69;;;18.41;58.01
49461;BME280;35355;49.198;-0.368;2023-08-06T06:30:43;101207.72;;;18.48;57.77
49461;BME280;35355;49.198;-0.368;2023-08-06T06:33:09;101207.94;;;18.51;57.57
49461;BME280;35355;49.198;-0.368;2023-08-06T06:35:35;101214.16;;;18.57;57.39
49461;BME280;35355;49.198;-0.368;2023-08-06T06:38:00;101223.50;;;18.61;57.26
49461;BME280;35355;49.198;-0.368;2023-08-06T06:40:26;101227.31;;;18.65;56.78
49461;BME280;35355;49.198;-0.368;2023-08-06T06:42:51;101230.56;;;18.67;56.75
49461;BME280;35355;49.198;-0.368;2023-08-06T06:45:17;101219.50;;;18.67;56.45
49461;BME280;35355;49.198;-0.368;2023-08-06T06:47:43;101241.44;;;18.77;56.49
49461;BME280;35355;49.198;-0.368;2023-08-06T06:50:08;101237.75;;;18.82;56.21
49461;BME280;35355;49.198;-0.368;2023-08-06T06:52:37;101233.00;;;18.88;55.90
49461;BME280;35355;49.198;-0.368;2023-08-06T06:55:05;101231.25;;;18.92;55.46
49461;BME280;35355;49.198;-0.368;2023-08-06T06:57:31;101238.00;;;19.00;55.22
49461;BME280;35355;49.198;-0.368;2023-08-06T06:59:57;101222.88;;;18.97;55.10
49461;BME280;35355;49.198;-0.368;2023-08-06T07:02:22;101251.88;;;19.14;54.87
49461;BME280;35355;49.198;-0.368;2023-08-06T07:04:50;101253.72;;;19.18;54.83
49461;BME280;35355;49.198;-0.368;2023-08-06T07:07:19;101253.09;;;19.21;54.14
49461;BME280;35355;49.198;-0.368;2023-08-06T07:09:44;101238.75;;;19.19;53.95
49461;BME280;35355;49.198;-0.368;2023-08-06T07:12:10;101266.91;;;19.35;54.02
49461;BME280;35355;49.198;-0.368;2023-08-06T07:14:35;101262.94;;;19.41;53.93
49461;BME280;35355;49.198;-0.368;2023-08-06T07:17:01;101246.53;;;19.31;53.77
49461;BME280;35355;49.198;-0.368;2023-08-06T07:19:26;101267.09;;;19.53;54.07
49461;BME280;35355;49.198;-0.368;2023-08-06T07:21:51;101269.97;;;19.61;53.97
49461;BME280;35355;49.198;-0.368;2023-08-06T07:24:19;101269.66;;;19.63;53.31
49461;BME280;35355;49.198;-0.368;2023-08-06T07:26:45;101253.47;;;19.56;53.51
49461;BME280;35355;49.198;-0.368;2023-08-06T07:29:10;101281.34;;;19.74;53.48
49461;BME280;35355;49.198;-0.368;2023-08-06T07:31:36;101270.28;;;19.74;53.59
49461;BME280;35355;49.198;-0.368;2023-08-06T07:34:01;101273.75;;;19.79;53.12
49461;BME280;35355;49.198;-0.368;2023-08-06T07:36:30;101274.47;;;19.85;52.79
49461;BME280;35355;49.198;-0.368;2023-08-06T07:38:56;101278.25;;;19.89;52.64
49461;BME280;35355;49.198;-0.368;2023-08-06T07:41:25;101286.75;;;19.93;52.90
49461;BME280;35355;49.198;-0.368;2023-08-06T07:43:50;101287.78;;;19.97;52.30
49461;BME280;35355;49.198;-0.368;2023-08-06T07:46:15;101287.28;;;19.95;51.99
49461;BME280;35355;49.198;-0.368;2023-08-06T07:48:44;101281.22;;;19.93;52.34
49461;BME280;35355;49.198;-0.368;2023-08-06T07:51:12;101280.56;;;19.96;52.11
49461;BME280;35355;49.198;-0.368;2023-08-06T07:53:37;101289.28;;;20.03;51.64
49461;BME280;35355;49.198;-0.368;2023-08-06T07:56:03;101285.59;;;20.08;51.81
49461;BME280;35355;49.198;-0.368;2023-08-06T07:58:28;101285.41;;;20.04;51.54
49461;BME280;35355;49.198;-0.368;2023-08-06T08:00:55;101291.44;;;20.06;51.46
49461;BME280;35355;49.198;-0.368;2023-08-06T08:03:25;101297.28;;;20.05;51.66
49461;BME280;35355;49.198;-0.368;2023-08-06T08:05:57;101283.13;;;20.06;51.88
49461;BME280;35355;49.198;-0.368;2023-08-06T08:08:23;101276.97;;;20.09;52.07
49461;BME280;35355;49.198;-0.368;2023-08-06T08:10:49;101288.38;;;20.08;51.72
49461;BME280;35355;49.198;-0.368;2023-08-06T08:13:14;101290.75;;;20.01;51.20
49461;BME280;35355;49.198;-0.368;2023-08-06T08:15:40;101279.59;;;19.92;51.02
49461;BME280;35355;49.198;-0.368;2023-08-06T08:18:08;101283.97;;;19.93;51.42
49461;BME280;35355;49.198;-0.368;2023-08-06T08:20:33;101283.97;;;19.93;51.55
49461;BME280;35355;49.198;-0.368;2023-08-06T08:23:01;101290.97;;;19.90;51.51
49461;BME280;35355;49.198;-0.368;2023-08-06T08:25:29;101285.44;;;19.90;51.61
49461;BME280;35355;49.198;-0.368;2023-08-06T08:27:57;101288.59;;;19.97;51.78
49461;BME280;35355;49.198;-0.368;2023-08-06T08:30:22;101295.53;;;20.09;51.63
49461;BME280;35355;49.198;-0.368;2023-08-06T08:32:50;101296.25;;;20.14;51.23
49461;BME280;35355;49.198;-0.368;2023-08-06T08:35:15;101294.81;;;20.17;51.67
49461;BME280;35355;49.198;-0.368;2023-08-06T08:37:44;101298.91;;;20.20;52.20
49461;BME280;35355;49.198;-0.368;2023-08-06T08:40:09;101295.59;;;20.18;52.40
49461;BME280;35355;49.198;-0.368;2023-08-06T08:42:37;101302.28;;;20.16;52.50
49461;BME280;35355;49.198;-0.368;2023-08-06T08:45:12;101295.59;;;20.18;53.27
49461;BME280;35355;49.198;-0.368;2023-08-06T08:47:40;101304.00;;;20.26;52.77
49461;BME280;35355;49.198;-0.368;2023-08-06T08:50:10;101309.38;;;20.23;52.82
49461;BME280;35355;49.198;-0.368;2023-08-06T08:52:38;101316.66;;;20.19;52.83
49461;BME280;35355;49.198;-0.368;2023-08-06T08:55:06;101307.94;;;20.11;52.66
49461;BME280;35355;49.198;-0.368;2023-08-06T08:57:34;101310.81;;;20.06;52.98
49461;BME280;35355;49.198;-0.368;2023-08-06T09:00:00;101303.84;;;20.09;53.22
49461;BME280;35355;49.198;-0.368;2023-08-06T09:02:30;101303.03;;;20.08;53.21
49461;BME280;35355;49.198;-0.368;2023-08-06T09:04:58;101303.53;;;20.10;52.87
49461;BME280;35355;49.198;-0.368;2023-08-06T09:07:30;101302.41;;;20.11;53.05
49461;BME280;35355;49.198;-0.368;2023-08-06T09:09:58;101306.63;;;20.09;52.28
49461;BME280;35355;49.198;-0.368;2023-08-06T09:12:25;101310.81;;;20.06;52.24
49461;BME280;35355;49.198;-0.368;2023-08-06T09:14:51;101307.56;;;20.04;52.02
49461;BME280;35355;49.198;-0.368;2023-08-06T09:17:17;101311.44;;;20.03;52.29
49461;BME280;35355;49.198;-0.368;2023-08-06T09:19:47;101309.00;;;20.02;52.29
49461;BME280;35355;49.198;-0.368;2023-08-06T09:22:14;101298.94;;;20.06;52.24
49461;BME280;35355;49.198;-0.368;2023-08-06T09:24:43;101305.06;;;20.16;52.47
49461;BME280;35355;49.198;-0.368;2023-08-06T09:27:13;101317.53;;;20.28;52.21
49461;BME280;35355;49.198;-0.368;2023-08-06T09:29:43;101310.75;;;20.34;52.04
49461;BME280;35355;49.198;-0.368;2023-08-06T09:32:09;101316.91;;;20.31;51.78
49461;BME280;35355;49.198;-0.368;2023-08-06T09:34:38;101323.72;;;20.25;51.90
49461;BME280;35355;49.198;-0.368;2023-08-06T09:37:04;101325.28;;;20.17;52.18
49461;BME280;35355;49.198;-0.368;2023-08-06T09:39:30;101316.69;;;20.05;52.59
49461;BME280;35355;49.198;-0.368;2023-08-06T09:41:57;101329.22;;;20.02;52.69
49461;BME280;35355;49.198;-0.368;2023-08-06T09:44:25;101330.97;;;19.98;53.02
49461;BME280;35355;49.198;-0.368;2023-08-06T09:46:55;101331.47;;;20.00;53.27
49461;BME280;35355;49.198;-0.368;2023-08-06T09:49:28;101336.59;;;20.07;53.83
49461;BME280;35355;49.198;-0.368;2023-08-06T09:51:54;101331.16;;;20.15;53.70
49461;BME280;35355;49.198;-0.368;2023-08-06T09:54:26;101331.53;;;20.23;53.59
49461;BME280;35355;49.198;-0.368;2023-08-06T09:56:53;101324.53;;;20.25;52.70
49461;BME280;35355;49.198;-0.368;2023-08-06T09:59:19;101327.19;;;20.30;52.25
49461;BME280;35355;49.198;-0.368;2023-08-06T10:01:45;101325.75;;;20.33;52.06
49461;BME280;35355;49.198;-0.368;2023-08-06T10:04:14;101337.41;;;20.44;52.40
49461;BME280;35355;49.198;-0.368;2023-08-06T10:06:42;101333.69;;;20.48;52.00
49461;BME280;35355;49.198;-0.368;2023-08-06T10:09:08;101338.50;;;20.57;52.09
49461;BME280;35355;49.198;-0.368;2023-08-06T10:11:37;101350.72;;;20.56;52.29
49461;BME280;35355;49.198;-0.368;2023-08-06T10:14:12;101345.81;;;20.53;52.01
49461;BME280;35355;49.198;-0.368;2023-08-06T10:16:40;101339.25;;;20.48;52.01
49461;BME280;35355;49.198;-0.368;2023-08-06T10:19:09;101355.38;;;20.46;52.23
49461;BME280;35355;49.198;-0.368;2023-08-06T10:21:35;101353.84;;;20.40;52.13
49461;BME280;35355;49.198;-0.368;2023-08-06T10:24:06;101342.56;;;20.37;52.69
49461;BME280;35355;49.198;-0.368;2023-08-06T10:26:34;101357.75;;;20.39;52.45
49461;BME280;35355;49.198;-0.368;2023-08-06T10:29:36;101351.69;;;20.37;53.35
49461;BME280;35355;49.198;-0.368;2023-08-06T10:32:04;101353.09;;;20.48;54.14
49461;BME280;35355;49.198;-0.368;2023-08-06T10:34:58;101356.75;;;20.58;53.83
49461;BME280;35355;49.198;-0.368;2023-08-06T10:37:35;101361.59;;;20.66;53.28
49461;BME280;35355;49.198;-0.368;2023-08-06T10:40:01;101351.38;;;20.75;52.09
49461;BME280;35355;49.198;-0.368;2023-08-06T10:42:27;101363.97;;;20.81;51.41
49461;BME280;35355;49.198;-0.368;2023-08-06T10:45:25;101348.97;;;20.82;52.81
49461;BME280;35355;49.198;-0.368;2023-08-06T10:47:54;101355.38;;;20.92;51.46
49461;BME280;35355;49.198;-0.368;2023-08-06T10:50:25;101362.63;;;21.01;50.60
49461;BME280;35355;49.198;-0.368;2023-08-06T10:52:51;101356.13;;;21.06;49.94
49461;BME280;35355;49.198;-0.368;2023-08-06T10:55:24;101364.34;;;21.11;51.04
49461;BME280;35355;49.198;-0.368;2023-08-06T10:57:57;101365.50;;;21.19;49.94
49461;BME280;35355;49.198;-0.368;2023-08-06T11:00:23;101365.34;;;21.24;52.77
49461;BME280;35355;49.198;-0.368;2023-08-06T11:02:53;101372.72;;;21.29;49.51
49461;BME280;35355;49.198;-0.368;2023-08-06T11:05:18;101365.88;;;21.26;49.47
49461;BME280;35355;49.198;-0.368;2023-08-06T11:07:46;101346.25;;;21.23;49.59
49461;BME280;35355;49.198;-0.368;2023-08-06T11:10:14;101364.22;;;21.25;49.14
49461;BME280;35355;49.198;-0.368;2023-08-06T11:12:40;101363.91;;;21.27;49.18
49461;BME280;35355;49.198;-0.368;2023-08-06T11:15:06;101366.38;;;21.28;49.47
49461;BME280;35355;49.198;-0.368;2023-08-06T11:17:33;101357.06;;;21.33;49.15
49461;BME280;35355;49.198;-0.368;2023-08-06T11:20:06;101369.34;;;21.32;49.49
49461;BME280;35355;49.198;-0.368;2023-08-06T11:22:32;101365.56;;;21.28;49.23
49461;BME280;35355;49.198;-0.368;2023-08-06T11:24:58;101367.81;;;21.26;49.02
49461;BME280;35355;49.198;-0.368;2023-08-06T11:27:27;101370.75;;;21.20;48.48
49461;BME280;35355;49.198;-0.368;2023-08-06T11:29:53;101367.16;;;21.20;48.68
49461;BME280;35355;49.198;-0.368;2023-08-06T11:32:19;101375.66;;;21.24;48.72
49461;BME280;35355;49.198;-0.368;2023-08-06T11:34:44;101371.09;;;21.28;48.81
49461;BME280;35355;49.198;-0.368;2023-08-06T11:37:10;101369.34;;;21.32;48.50
49461;BME280;35355;49.198;-0.368;2023-08-06T11:39:37;101370.31;;;21.36;48.31
49461;BME280;35355;49.198;-0.368;2023-08-06T11:42:04;101363.63;;;21.37;47.96
49461;BME280;35355;49.198;-0.368;2023-08-06T11:44:31;101367.84;;;21.34;48.18
49461;BME280;35355;49.198;-0.368;2023-08-06T11:47:02;101364.75;;;21.36;48.05
49461;BME280;35355;49.198;-0.368;2023-08-06T11:49:47;101355.94;;;21.34;49.57
49461;BME280;35355;49.198;-0.368;2023-08-06T11:52:18;101356.31;;;21.41;48.28
49461;BME280;35355;49.198;-0.368;2023-08-06T11:54:46;101350.22;;;21.39;48.39
49461;BME280;35355;49.198;-0.368;2023-08-06T11:57:12;101349.09;;;21.40;48.33
49461;BME280;35355;49.198;-0.368;2023-08-06T11:59:38;101355.31;;;21.37;48.44
49461;BME280;35355;49.198;-0.368;2023-08-06T12:02:05;101357.91;;;21.33;48.41
49461;BME280;35355;49.198;-0.368;2023-08-06T12:05:01;101361.44;;;21.25;49.45
49461;BME280;35355;49.198;-0.368;2023-08-06T12:07:29;101352.81;;;21.27;48.86
49461;BME280;35355;49.198;-0.368;2023-08-06T12:09:55;101362.91;;;21.23;48.98
49461;BME280;35355;49.198;-0.368;2023-08-06T12:12:21;101356.53;;;21.22;48.54
49461;BME280;35355;49.198;-0.368;2023-08-06T12:14:47;101356.19;;;21.15;48.19
49461;BME280;35355;49.198;-0.368;2023-08-06T12:17:14;101344.91;;;21.11;48.13
49461;BME280;35355;49.198;-0.368;2023-08-06T12:19:40;101333.22;;;21.00;48.65
49461;BME280;35355;49.198;-0.368;2023-08-06T12:22:06;101351.69;;;21.05;48.88
49461;BME280;35355;49.198;-0.368;2023-08-06T12:24:31;101356.00;;;21.11;49.79
49461;BME280;35355;49.198;-0.368;2023-08-06T12:26:57;101361.09;;;21.18;49.09
49461;BME280;35355;49.198;-0.368;2023-08-06T12:29:24;101354.09;;;21.20;48.76
49461;BME280;35355;49.198;-0.368;2023-08-06T12:31:50;101359.00;;;21.24;48.97
49461;BME280;35355;49.198;-0.368;2023-08-06T12:34:15;101363.91;;;21.27;48.68
49461;BME280;35355;49.198;-0.368;2023-08-06T12:36:40;101356.06;;;21.29;48.60
49461;BME280;35355;49.198;-0.368;2023-08-06T12:39:06;101355.25;;;21.28;48.45
49461;BME280;35355;49.198;-0.368;2023-08-06T12:41:34;101349.53;;;21.25;48.99
49461;BME280;35355;49.198;-0.368;2023-08-06T12:44:00;101347.56;;;21.25;48.60